Pierrepont, New York
Current Conditions -  °F | °C
As of 11:53 PM on Wednesday 22 Oct 2014 (Local Time) from KMSS Reporting Station
Broken Clouds Broken Clouds  
Wind Chill: 40°   Ceiling: 7000
Heat Index: 46°   Visibility: 10mi
Dew Point: 35°   Wind: 15mph
Humidity: 66%   Direction: 40°NE
Pressure: 30.18"   Gusts: NA
Location:  44.5792°N, 75.1592°W
Report Text: KMSS 230353Z AUTO 04013KT 10SM BKN070 08/02 A3018 RMK AO2 SLP222 T00780017
Loading
Personal Weather Stations






























Interactive Weather Map New forecast layout! Learn more

10-Day Weather Forecast

Advertisements
Track Severe Weather on mobile